sensor_id;sensor_type;location;lat;lon;timestamp;P1;durP1;ratioP1;P2;durP2;ratioP2
22415;SDS011;12204;50.600;4.608;2022-10-22T00:04:52;16.77;;;5.07;;
22415;SDS011;12204;50.600;4.608;2022-10-22T00:09:57;14.88;;;4.80;;
22415;SDS011;12204;50.600;4.608;2022-10-22T00:15:02;12.95;;;4.60;;
22415;SDS011;12204;50.600;4.608;2022-10-22T00:20:08;14.03;;;4.70;;
22415;SDS011;12204;50.600;4.608;2022-10-22T00:25:13;15.23;;;4.80;;
22415;SDS011;12204;50.600;4.608;2022-10-22T00:30:18;12.45;;;4.72;;
22415;SDS011;12204;50.600;4.608;2022-10-22T00:35:22;11.60;;;4.60;;
22415;SDS011;12204;50.600;4.608;2022-10-22T00:40:25;14.48;;;4.65;;
22415;SDS011;12204;50.600;4.608;2022-10-22T00:45:30;12.60;;;4.72;;
22415;SDS011;12204;50.600;4.608;2022-10-22T00:50:34;11.98;;;4.13;;
22415;SDS011;12204;50.600;4.608;2022-10-22T00:55:43;10.80;;;4.30;;
22415;SDS011;12204;50.600;4.608;2022-10-22T01:00:53;12.23;;;4.28;;
22415;SDS011;12204;50.600;4.608;2022-10-22T01:05:59;12.82;;;4.28;;
22415;SDS011;12204;50.600;4.608;2022-10-22T01:11:07;10.20;;;3.72;;
22415;SDS011;12204;50.600;4.608;2022-10-22T01:16:24;11.50;;;4.30;;
22415;SDS011;12204;50.600;4.608;2022-10-22T01:21:38;10.48;;;4.00;;
22415;SDS011;12204;50.600;4.608;2022-10-22T01:26:59;10.35;;;4.18;;
22415;SDS011;12204;50.600;4.608;2022-10-22T01:32:19;12.73;;;4.53;;
22415;SDS011;12204;50.600;4.608;2022-10-22T01:37:28;12.30;;;3.92;;
22415;SDS011;12204;50.600;4.608;2022-10-22T01:42:36;11.95;;;4.22;;
22415;SDS011;12204;50.600;4.608;2022-10-22T01:47:47;9.20;;;3.80;;
22415;SDS011;12204;50.600;4.608;2022-10-22T01:58:30;11.68;;;3.72;;
22415;SDS011;12204;50.600;4.608;2022-10-22T02:03:47;11.10;;;4.10;;
22415;SDS011;12204;50.600;4.608;2022-10-22T02:08:57;11.18;;;3.80;;
22415;SDS011;12204;50.600;4.608;2022-10-22T02:14:04;10.63;;;3.60;;
22415;SDS011;12204;50.600;4.608;2022-10-22T02:19:13;9.37;;;3.40;;
22415;SDS011;12204;50.600;4.608;2022-10-22T02:24:24;10.65;;;3.38;;
22415;SDS011;12204;50.600;4.608;2022-10-22T02:29:29;9.77;;;3.53;;
22415;SDS011;12204;50.600;4.608;2022-10-22T02:34:42;10.00;;;3.30;;
22415;SDS011;12204;50.600;4.608;2022-10-22T02:39:47;10.70;;;3.35;;
22415;SDS011;12204;50.600;4.608;2022-10-22T02:44:52;10.13;;;3.42;;
22415;SDS011;12204;50.600;4.608;2022-10-22T02:49:57;9.00;;;3.35;;
22415;SDS011;12204;50.600;4.608;2022-10-22T02:55:01;9.45;;;3.22;;
22415;SDS011;12204;50.600;4.608;2022-10-22T03:00:06;11.07;;;3.28;;
22415;SDS011;12204;50.600;4.608;2022-10-22T03:05:13;8.47;;;3.23;;
22415;SDS011;12204;50.600;4.608;2022-10-22T03:10:17;8.75;;;3.45;;
22415;SDS011;12204;50.600;4.608;2022-10-22T03:15:21;8.73;;;3.28;;
22415;SDS011;12204;50.600;4.608;2022-10-22T03:20:26;10.05;;;3.20;;
22415;SDS011;12204;50.600;4.608;2022-10-22T03:25:30;9.88;;;3.03;;
22415;SDS011;12204;50.600;4.608;2022-10-22T03:30:35;11.20;;;3.08;;
22415;SDS011;12204;50.600;4.608;2022-10-22T03:35:41;8.25;;;3.00;;
22415;SDS011;12204;50.600;4.608;2022-10-22T03:40:47;7.47;;;2.90;;
22415;SDS011;12204;50.600;4.608;2022-10-22T03:45:51;7.07;;;2.90;;
22415;SDS011;12204;50.600;4.608;2022-10-22T03:50:56;6.85;;;2.60;;
22415;SDS011;12204;50.600;4.608;2022-10-22T03:56:00;7.30;;;2.97;;
22415;SDS011;12204;50.600;4.608;2022-10-22T04:01:04;8.35;;;2.90;;
22415;SDS011;12204;50.600;4.608;2022-10-22T04:06:10;8.18;;;2.60;;
22415;SDS011;12204;50.600;4.608;2022-10-22T04:11:15;7.60;;;2.53;;
22415;SDS011;12204;50.600;4.608;2022-10-22T04:16:20;6.45;;;2.58;;
22415;SDS011;12204;50.600;4.608;2022-10-22T04:21:30;7.70;;;2.60;;
22415;SDS011;12204;50.600;4.608;2022-10-22T04:26:34;8.00;;;2.80;;
22415;SDS011;12204;50.600;4.608;2022-10-22T04:31:38;9.63;;;2.78;;
22415;SDS011;12204;50.600;4.608;2022-10-22T04:36:43;7.78;;;2.97;;
22415;SDS011;12204;50.600;4.608;2022-10-22T04:41:46;6.43;;;2.40;;
22415;SDS011;12204;50.600;4.608;2022-10-22T04:46:50;10.25;;;2.53;;
22415;SDS011;12204;50.600;4.608;2022-10-22T04:51:55;6.40;;;2.50;;
22415;SDS011;12204;50.600;4.608;2022-10-22T04:56:59;7.50;;;2.38;;
22415;SDS011;12204;50.600;4.608;2022-10-22T05:02:02;8.65;;;2.30;;
22415;SDS011;12204;50.600;4.608;2022-10-22T05:07:07;6.60;;;2.55;;
22415;SDS011;12204;50.600;4.608;2022-10-22T05:12:11;7.53;;;2.80;;
22415;SDS011;12204;50.600;4.608;2022-10-22T05:17:14;5.95;;;2.20;;
22415;SDS011;12204;50.600;4.608;2022-10-22T05:22:19;6.35;;;2.25;;
22415;SDS011;12204;50.600;4.608;2022-10-22T05:27:23;6.72;;;2.38;;
22415;SDS011;12204;50.600;4.608;2022-10-22T05:32:26;6.65;;;2.42;;
22415;SDS011;12204;50.600;4.608;2022-10-22T05:37:31;6.65;;;2.05;;
22415;SDS011;12204;50.600;4.608;2022-10-22T05:42:35;5.80;;;2.20;;
22415;SDS011;12204;50.600;4.608;2022-10-22T05:47:39;6.18;;;2.58;;
22415;SDS011;12204;50.600;4.608;2022-10-22T05:52:44;6.28;;;1.92;;
22415;SDS011;12204;50.600;4.608;2022-10-22T05:57:47;7.63;;;2.00;;
22415;SDS011;12204;50.600;4.608;2022-10-22T06:02:51;7.63;;;2.20;;
22415;SDS011;12204;50.600;4.608;2022-10-22T06:07:56;5.63;;;2.08;;
22415;SDS011;12204;50.600;4.608;2022-10-22T06:12:59;6.30;;;2.00;;
22415;SDS011;12204;50.600;4.608;2022-10-22T06:18:03;5.15;;;2.00;;
22415;SDS011;12204;50.600;4.608;2022-10-22T06:23:08;5.50;;;1.85;;
22415;SDS011;12204;50.600;4.608;2022-10-22T06:28:12;4.90;;;1.85;;
22415;SDS011;12204;50.600;4.608;2022-10-22T06:33:15;7.85;;;2.30;;
22415;SDS011;12204;50.600;4.608;2022-10-22T06:38:20;7.82;;;2.13;;
22415;SDS011;12204;50.600;4.608;2022-10-22T06:43:24;7.45;;;2.20;;
22415;SDS011;12204;50.600;4.608;2022-10-22T06:48:27;7.28;;;2.00;;
22415;SDS011;12204;50.600;4.608;2022-10-22T06:53:33;7.53;;;1.67;;
22415;SDS011;12204;50.600;4.608;2022-10-22T06:58:38;6.70;;;2.00;;
22415;SDS011;12204;50.600;4.608;2022-10-22T07:03:41;6.20;;;1.98;;
22415;SDS011;12204;50.600;4.608;2022-10-22T07:08:46;11.27;;;2.00;;
22415;SDS011;12204;50.600;4.608;2022-10-22T07:13:52;6.65;;;1.80;;
22415;SDS011;12204;50.600;4.608;2022-10-22T07:18:57;8.73;;;2.00;;
22415;SDS011;12204;50.600;4.608;2022-10-22T07:24:02;6.80;;;1.77;;
22415;SDS011;12204;50.600;4.608;2022-10-22T07:29:06;9.40;;;2.08;;
22415;SDS011;12204;50.600;4.608;2022-10-22T07:34:10;6.93;;;2.00;;
22415;SDS011;12204;50.600;4.608;2022-10-22T07:39:15;8.15;;;2.17;;
22415;SDS011;12204;50.600;4.608;2022-10-22T07:44:20;8.53;;;2.20;;
22415;SDS011;12204;50.600;4.608;2022-10-22T07:49:24;8.38;;;2.35;;
22415;SDS011;12204;50.600;4.608;2022-10-22T07:54:29;8.32;;;2.30;;
22415;SDS011;12204;50.600;4.608;2022-10-22T07:59:32;10.90;;;2.00;;
22415;SDS011;12204;50.600;4.608;2022-10-22T08:04:36;12.77;;;2.20;;
22415;SDS011;12204;50.600;4.608;2022-10-22T08:09:41;9.90;;;2.00;;
22415;SDS011;12204;50.600;4.608;2022-10-22T08:14:45;8.73;;;2.05;;
22415;SDS011;12204;50.600;4.608;2022-10-22T08:19:48;9.75;;;2.10;;
22415;SDS011;12204;50.600;4.608;2022-10-22T08:24:53;10.00;;;2.10;;
22415;SDS011;12204;50.600;4.608;2022-10-22T08:29:57;9.15;;;2.00;;
22415;SDS011;12204;50.600;4.608;2022-10-22T08:35:00;5.70;;;1.85;;
22415;SDS011;12204;50.600;4.608;2022-10-22T08:40:06;7.18;;;1.90;;
22415;SDS011;12204;50.600;4.608;2022-10-22T08:45:12;9.32;;;2.10;;
22415;SDS011;12204;50.600;4.608;2022-10-22T08:50:26;8.65;;;2.13;;
22415;SDS011;12204;50.600;4.608;2022-10-22T08:55:38;8.07;;;1.80;;
22415;SDS011;12204;50.600;4.608;2022-10-22T09:00:42;7.55;;;2.00;;
22415;SDS011;12204;50.600;4.608;2022-10-22T09:05:54;8.60;;;2.00;;
22415;SDS011;12204;50.600;4.608;2022-10-22T09:11:12;7.40;;;1.92;;
22415;SDS011;12204;50.600;4.608;2022-10-22T09:16:31;5.85;;;1.60;;
22415;SDS011;12204;50.600;4.608;2022-10-22T09:21:43;5.97;;;1.80;;
22415;SDS011;12204;50.600;4.608;2022-10-22T09:26:58;6.38;;;1.70;;
22415;SDS011;12204;50.600;4.608;2022-10-22T09:32:03;6.88;;;1.80;;
22415;SDS011;12204;50.600;4.608;2022-10-22T09:37:08;4.93;;;1.60;;
22415;SDS011;12204;50.600;4.608;2022-10-22T09:42:14;5.47;;;1.55;;
22415;SDS011;12204;50.600;4.608;2022-10-22T09:47:28;7.43;;;1.73;;
22415;SDS011;12204;50.600;4.608;2022-10-22T09:52:54;5.90;;;1.85;;
22415;SDS011;12204;50.600;4.608;2022-10-22T09:58:08;10.90;;;1.98;;
22415;SDS011;12204;50.600;4.608;2022-10-22T10:03:16;9.45;;;1.65;;
22415;SDS011;12204;50.600;4.608;2022-10-22T10:08:23;7.28;;;1.52;;
22415;SDS011;12204;50.600;4.608;2022-10-22T10:13:32;7.53;;;1.70;;
22415;SDS011;12204;50.600;4.608;2022-10-22T10:18:53;8.48;;;1.55;;
22415;SDS011;12204;50.600;4.608;2022-10-22T10:24:15;6.07;;;1.88;;
22415;SDS011;12204;50.600;4.608;2022-10-22T10:29:38;8.55;;;1.90;;
22415;SDS011;12204;50.600;4.608;2022-10-22T10:34:52;8.40;;;2.00;;
22415;SDS011;12204;50.600;4.608;2022-10-22T10:40:14;9.93;;;2.00;;
22415;SDS011;12204;50.600;4.608;2022-10-22T10:45:34;7.80;;;2.00;;
22415;SDS011;12204;50.600;4.608;2022-10-22T10:50:49;8.65;;;2.10;;
22415;SDS011;12204;50.600;4.608;2022-10-22T10:56:06;8.07;;;2.00;;
22415;SDS011;12204;50.600;4.608;2022-10-22T11:01:33;7.82;;;2.05;;
22415;SDS011;12204;50.600;4.608;2022-10-22T11:06:55;8.38;;;1.88;;
22415;SDS011;12204;50.600;4.608;2022-10-22T11:12:13;7.45;;;1.90;;
22415;SDS011;12204;50.600;4.608;2022-10-22T11:17:24;6.30;;;1.80;;
22415;SDS011;12204;50.600;4.608;2022-10-22T11:22:34;6.73;;;1.80;;
22415;SDS011;12204;50.600;4.608;2022-10-22T11:28:02;6.40;;;1.83;;
22415;SDS011;12204;50.600;4.608;2022-10-22T11:33:20;6.63;;;1.80;;
22415;SDS011;12204;50.600;4.608;2022-10-22T11:38:30;7.15;;;1.70;;
22415;SDS011;12204;50.600;4.608;2022-10-22T11:43:50;6.20;;;1.70;;
22415;SDS011;12204;50.600;4.608;2022-10-22T11:49:17;7.38;;;1.98;;
22415;SDS011;12204;50.600;4.608;2022-10-22T11:54:31;7.45;;;1.75;;
22415;SDS011;12204;50.600;4.608;2022-10-22T11:59:46;7.78;;;1.63;;
22415;SDS011;12204;50.600;4.608;2022-10-22T12:05:15;7.05;;;1.73;;
22415;SDS011;12204;50.600;4.608;2022-10-22T12:10:47;6.82;;;1.63;;
22415;SDS011;12204;50.600;4.608;2022-10-22T12:16:07;4.65;;;1.52;;
22415;SDS011;12204;50.600;4.608;2022-10-22T12:21:19;4.93;;;1.52;;
22415;SDS011;12204;50.600;4.608;2022-10-22T12:26:23;7.80;;;1.80;;
22415;SDS011;12204;50.600;4.608;2022-10-22T12:31:33;5.05;;;1.38;;
22415;SDS011;12204;50.600;4.608;2022-10-22T12:36:41;5.57;;;1.50;;
22415;SDS011;12204;50.600;4.608;2022-10-22T12:41:46;5.55;;;1.50;;
22415;SDS011;12204;50.600;4.608;2022-10-22T12:46:50;5.85;;;1.45;;
22415;SDS011;12204;50.600;4.608;2022-10-22T12:52:00;4.80;;;1.30;;
22415;SDS011;12204;50.600;4.608;2022-10-22T12:57:15;5.60;;;1.60;;
22415;SDS011;12204;50.600;4.608;2022-10-22T13:02:21;6.70;;;1.52;;
22415;SDS011;12204;50.600;4.608;2022-10-22T13:07:36;5.37;;;1.50;;
22415;SDS011;12204;50.600;4.608;2022-10-22T13:12:43;6.88;;;1.40;;
22415;SDS011;12204;50.600;4.608;2022-10-22T13:17:51;4.55;;;1.30;;
22415;SDS011;12204;50.600;4.608;2022-10-22T13:23:17;6.10;;;1.40;;
22415;SDS011;12204;50.600;4.608;2022-10-22T13:28:24;5.75;;;1.50;;
22415;SDS011;12204;50.600;4.608;2022-10-22T13:33:29;4.20;;;1.20;;
22415;SDS011;12204;50.600;4.608;2022-10-22T13:38:38;4.75;;;1.25;;
22415;SDS011;12204;50.600;4.608;2022-10-22T13:43:42;5.70;;;1.45;;
22415;SDS011;12204;50.600;4.608;2022-10-22T13:48:46;5.13;;;1.27;;
22415;SDS011;12204;50.600;4.608;2022-10-22T13:53:54;4.33;;;1.37;;
22415;SDS011;12204;50.600;4.608;2022-10-22T13:58:57;4.53;;;1.23;;
22415;SDS011;12204;50.600;4.608;2022-10-22T14:04:02;4.60;;;1.30;;
22415;SDS011;12204;50.600;4.608;2022-10-22T14:09:12;3.60;;;1.17;;
22415;SDS011;12204;50.600;4.608;2022-10-22T14:14:18;4.28;;;1.10;;
22415;SDS011;12204;50.600;4.608;2022-10-22T14:19:21;4.93;;;1.20;;
22415;SDS011;12204;50.600;4.608;2022-10-22T14:24:26;4.82;;;1.30;;
22415;SDS011;12204;50.600;4.608;2022-10-22T14:29:30;4.45;;;1.20;;
22415;SDS011;12204;50.600;4.608;2022-10-22T14:34:33;4.20;;;1.25;;
22415;SDS011;12204;50.600;4.608;2022-10-22T14:39:38;4.40;;;1.20;;
22415;SDS011;12204;50.600;4.608;2022-10-22T14:44:42;4.20;;;1.10;;
22415;SDS011;12204;50.600;4.608;2022-10-22T14:49:46;5.25;;;1.27;;
22415;SDS011;12204;50.600;4.608;2022-10-22T14:54:51;5.13;;;1.40;;
22415;SDS011;12204;50.600;4.608;2022-10-22T14:59:54;4.10;;;1.20;;
22415;SDS011;12204;50.600;4.608;2022-10-22T15:04:58;3.88;;;1.20;;
22415;SDS011;12204;50.600;4.608;2022-10-22T15:10:04;4.97;;;1.15;;
22415;SDS011;12204;50.600;4.608;2022-10-22T15:15:10;5.55;;;1.30;;
22415;SDS011;12204;50.600;4.608;2022-10-22T15:20:22;8.38;;;1.40;;
22415;SDS011;12204;50.600;4.608;2022-10-22T15:25:27;6.00;;;1.60;;
22415;SDS011;12204;50.600;4.608;2022-10-22T15:30:30;7.95;;;1.30;;
22415;SDS011;12204;50.600;4.608;2022-10-22T15:35:34;4.93;;;1.13;;
22415;SDS011;12204;50.600;4.608;2022-10-22T15:40:39;6.43;;;1.40;;
22415;SDS011;12204;50.600;4.608;2022-10-22T15:45:43;7.75;;;1.50;;
22415;SDS011;12204;50.600;4.608;2022-10-22T15:50:49;6.90;;;1.50;;
22415;SDS011;12204;50.600;4.608;2022-10-22T15:55:54;25.25;;;3.35;;
22415;SDS011;12204;50.600;4.608;2022-10-22T16:01:02;22.35;;;3.00;;
22415;SDS011;12204;50.600;4.608;2022-10-22T16:06:08;22.63;;;2.70;;
22415;SDS011;12204;50.600;4.608;2022-10-22T16:11:13;20.23;;;2.60;;
22415;SDS011;12204;50.600;4.608;2022-10-22T16:16:16;18.40;;;2.22;;
22415;SDS011;12204;50.600;4.608;2022-10-22T16:21:20;13.73;;;2.22;;
22415;SDS011;12204;50.600;4.608;2022-10-22T16:26:26;13.95;;;1.80;;
22415;SDS011;12204;50.600;4.608;2022-10-22T16:31:30;14.23;;;2.10;;
22415;SDS011;12204;50.600;4.608;2022-10-22T16:36:33;13.07;;;2.17;;
22415;SDS011;12204;50.600;4.608;2022-10-22T16:41:40;9.77;;;1.98;;
22415;SDS011;12204;50.600;4.608;2022-10-22T16:46:43;17.58;;;1.95;;
22415;SDS011;12204;50.600;4.608;2022-10-22T16:51:47;21.88;;;1.88;;
22415;SDS011;12204;50.600;4.608;2022-10-22T16:56:52;18.38;;;1.77;;
22415;SDS011;12204;50.600;4.608;2022-10-22T17:01:56;12.43;;;2.08;;
22415;SDS011;12204;50.600;4.608;2022-10-22T17:07:00;14.82;;;2.17;;
22415;SDS011;12204;50.600;4.608;2022-10-22T17:12:05;14.90;;;1.80;;
22415;SDS011;12204;50.600;4.608;2022-10-22T17:17:09;10.23;;;1.90;;
22415;SDS011;12204;50.600;4.608;2022-10-22T17:22:12;12.75;;;1.92;;
22415;SDS011;12204;50.600;4.608;2022-10-22T17:27:20;13.35;;;1.92;;
22415;SDS011;12204;50.600;4.608;2022-10-22T17:32:23;10.48;;;1.55;;
22415;SDS011;12204;50.600;4.608;2022-10-22T17:37:27;10.98;;;1.60;;
22415;SDS011;12204;50.600;4.608;2022-10-22T17:42:32;13.85;;;1.90;;
22415;SDS011;12204;50.600;4.608;2022-10-22T17:47:36;14.15;;;1.98;;
22415;SDS011;12204;50.600;4.608;2022-10-22T17:52:40;10.18;;;1.88;;
22415;SDS011;12204;50.600;4.608;2022-10-22T17:57:46;11.40;;;1.70;;
22415;SDS011;12204;50.600;4.608;2022-10-22T18:02:50;7.10;;;1.33;;
22415;SDS011;12204;50.600;4.608;2022-10-22T18:07:54;9.57;;;1.50;;
22415;SDS011;12204;50.600;4.608;2022-10-22T18:13:00;8.55;;;1.50;;
22415;SDS011;12204;50.600;4.608;2022-10-22T18:18:03;10.38;;;1.52;;
22415;SDS011;12204;50.600;4.608;2022-10-22T18:23:07;6.87;;;1.50;;
22415;SDS011;12204;50.600;4.608;2022-10-22T18:28:12;8.00;;;1.50;;
22415;SDS011;12204;50.600;4.608;2022-10-22T18:33:18;7.73;;;1.63;;
22415;SDS011;12204;50.600;4.608;2022-10-22T18:38:24;5.65;;;1.30;;
22415;SDS011;12204;50.600;4.608;2022-10-22T18:43:29;7.10;;;1.50;;
22415;SDS011;12204;50.600;4.608;2022-10-22T18:48:33;7.82;;;1.60;;
22415;SDS011;12204;50.600;4.608;2022-10-22T18:53:37;7.60;;;1.50;;
22415;SDS011;12204;50.600;4.608;2022-10-22T18:58:44;7.47;;;1.48;;
22415;SDS011;12204;50.600;4.608;2022-10-22T19:03:50;7.75;;;1.33;;
22415;SDS011;12204;50.600;4.608;2022-10-22T19:08:54;8.43;;;1.40;;
22415;SDS011;12204;50.600;4.608;2022-10-22T19:13:59;6.60;;;1.38;;
22415;SDS011;12204;50.600;4.608;2022-10-22T19:19:03;5.22;;;1.33;;
22415;SDS011;12204;50.600;4.608;2022-10-22T19:24:09;7.55;;;1.48;;
22415;SDS011;12204;50.600;4.608;2022-10-22T19:29:15;5.60;;;1.30;;
22415;SDS011;12204;50.600;4.608;2022-10-22T19:34:21;6.75;;;1.67;;
22415;SDS011;12204;50.600;4.608;2022-10-22T19:39:25;5.78;;;1.23;;
22415;SDS011;12204;50.600;4.608;2022-10-22T19:44:30;6.22;;;1.50;;
22415;SDS011;12204;50.600;4.608;2022-10-22T19:49:33;6.85;;;1.67;;
22415;SDS011;12204;50.600;4.608;2022-10-22T19:54:37;5.25;;;1.27;;
22415;SDS011;12204;50.600;4.608;2022-10-22T19:59:43;5.90;;;1.42;;
22415;SDS011;12204;50.600;4.608;2022-10-22T20:04:47;6.30;;;1.42;;
22415;SDS011;12204;50.600;4.608;2022-10-22T20:09:51;4.22;;;1.08;;
22415;SDS011;12204;50.600;4.608;2022-10-22T20:14:56;4.20;;;1.10;;
22415;SDS011;12204;50.600;4.608;2022-10-22T20:20:02;4.50;;;1.17;;
22415;SDS011;12204;50.600;4.608;2022-10-22T20:25:07;5.88;;;1.35;;
22415;SDS011;12204;50.600;4.608;2022-10-22T20:30:12;5.22;;;1.10;;
22415;SDS011;12204;50.600;4.608;2022-10-22T20:35:17;5.55;;;1.25;;
22415;SDS011;12204;50.600;4.608;2022-10-22T20:40:21;5.18;;;1.35;;
22415;SDS011;12204;50.600;4.608;2022-10-22T20:45:28;5.78;;;1.58;;
22415;SDS011;12204;50.600;4.608;2022-10-22T20:50:32;3.80;;;1.20;;
22415;SDS011;12204;50.600;4.608;2022-10-22T20:55:35;4.85;;;1.38;;
22415;SDS011;12204;50.600;4.608;2022-10-22T21:00:40;5.85;;;1.40;;
22415;SDS011;12204;50.600;4.608;2022-10-22T21:05:44;4.78;;;1.40;;
22415;SDS011;12204;50.600;4.608;2022-10-22T21:10:47;4.75;;;1.30;;
22415;SDS011;12204;50.600;4.608;2022-10-22T21:15:52;9.60;;;3.30;;
22415;SDS011;12204;50.600;4.608;2022-10-22T21:20:56;8.00;;;3.17;;
22415;SDS011;12204;50.600;4.608;2022-10-22T21:25:59;7.93;;;3.30;;
22415;SDS011;12204;50.600;4.608;2022-10-22T21:31:05;7.43;;;3.13;;
22415;SDS011;12204;50.600;4.608;2022-10-22T21:36:11;9.65;;;3.20;;
22415;SDS011;12204;50.600;4.608;2022-10-22T21:41:19;8.40;;;3.30;;
22415;SDS011;12204;50.600;4.608;2022-10-22T21:46:26;8.88;;;3.30;;
22415;SDS011;12204;50.600;4.608;2022-10-22T21:51:31;7.20;;;2.97;;
22415;SDS011;12204;50.600;4.608;2022-10-22T21:56:38;9.60;;;3.20;;
22415;SDS011;12204;50.600;4.608;2022-10-22T22:01:44;9.10;;;3.30;;
22415;SDS011;12204;50.600;4.608;2022-10-22T22:06:47;8.60;;;3.43;;
22415;SDS011;12204;50.600;4.608;2022-10-22T22:11:51;8.20;;;3.47;;
22415;SDS011;12204;50.600;4.608;2022-10-22T22:16:56;8.98;;;3.33;;
22415;SDS011;12204;50.600;4.608;2022-10-22T22:21:59;6.95;;;3.08;;
22415;SDS011;12204;50.600;4.608;2022-10-22T22:27:03;8.00;;;3.38;;
22415;SDS011;12204;50.600;4.608;2022-10-22T22:32:08;11.75;;;3.83;;
22415;SDS011;12204;50.600;4.608;2022-10-22T22:37:14;9.73;;;3.10;;
22415;SDS011;12204;50.600;4.608;2022-10-22T22:42:17;10.40;;;3.70;;
22415;SDS011;12204;50.600;4.608;2022-10-22T22:47:25;8.68;;;3.03;;
22415;SDS011;12204;50.600;4.608;2022-10-22T22:52:28;7.00;;;3.20;;
22415;SDS011;12204;50.600;4.608;2022-10-22T22:57:31;9.07;;;3.47;;
22415;SDS011;12204;50.600;4.608;2022-10-22T23:02:38;8.18;;;3.10;;
22415;SDS011;12204;50.600;4.608;2022-10-22T23:07:42;7.25;;;3.33;;
22415;SDS011;12204;50.600;4.608;2022-10-22T23:12:46;9.40;;;3.20;;
22415;SDS011;12204;50.600;4.608;2022-10-22T23:17:52;7.80;;;3.38;;
22415;SDS011;12204;50.600;4.608;2022-10-22T23:22:55;7.97;;;3.20;;
22415;SDS011;12204;50.600;4.608;2022-10-22T23:27:59;8.27;;;3.17;;
22415;SDS011;12204;50.600;4.608;2022-10-22T23:33:04;8.55;;;3.50;;
22415;SDS011;12204;50.600;4.608;2022-10-22T23:38:07;7.72;;;3.38;;
22415;SDS011;12204;50.600;4.608;2022-10-22T23:43:11;8.93;;;3.45;;
22415;SDS011;12204;50.600;4.608;2022-10-22T23:48:15;8.63;;;3.33;;
22415;SDS011;12204;50.600;4.608;2022-10-22T23:53:19;9.82;;;3.50;;
22415;SDS011;12204;50.600;4.608;2022-10-22T23:58:23;7.10;;;3.25;;
